Погода Лунзуна 2 недели

Южная Провинция, Малави

20 июля-02 августа
  • 20июля
    Сегодня
    +13°
    +27°
    Небольшая облачность
    ВремяПогодаТемператураВлажностьДавлениеВетер, м/сВероятность осадков
    02:00Практически безоблачно+14°C52 %673 мм1.6 м/с5 %
    05:00Небольшая облачность+13°C60 %673 мм1.6 м/с5 %
    08:00Небольшая облачность+21°C45 %677 мм2.1 м/с5 %
    11:00Облачно с прояснениями+25°C31 %677 мм1.1 м/с5 %
    14:00Небольшая облачность+27°C30 %676 мм2.1 м/с5 %
    17:00Ясно и безоблачно+25°C38 %675 мм2.4 м/с5 %
    20:00Ясно и безоблачно+20°C46 %675 мм2.6 м/с5 %
    23:00Ясно и безоблачно+18°C56 %675 мм2.7 м/с5 %
  • 21июля
    Воскресенье
    +12°
    +28°
    Небольшая облачность
    ВремяПогодаТемператураВлажностьДавлениеВетер, м/сВероятность осадков
    02:00Ясно и безоблачно+14°C64 %673 мм1.8 м/с5 %
    05:00Ясно и безоблачно+13°C64 %673 мм2.2 м/с5 %
    08:00Ясно и безоблачно+21°C48 %677 мм1.0 м/с5 %
    11:00Небольшая облачность+25°C35 %678 мм1.2 м/с5 %
    14:00Небольшая облачность+27°C33 %677 мм1.5 м/с5 %
    17:00Ясно и безоблачно+25°C30 %676 мм2.0 м/с5 %
    20:00Ясно и безоблачно+20°C52 %676 мм4.0 м/с5 %
    23:00Ясно и безоблачно+17°C67 %675 мм2.9 м/с5 %
  • 22июля
    Понедельник
    +12°
    +27°
    Облачно с прояснениями
    ВремяПогодаТемператураВлажностьДавлениеВетер, м/сВероятность осадков
    02:00Ясно и безоблачно+13°C87 %674 мм3.1 м/с5 %
    05:00Небольшая облачность+12°C92 %674 мм2.9 м/с5 %
    08:00Практически безоблачно+20°C64 %678 мм1.6 м/с5 %
    11:00Облачно с прояснениями+24°C47 %679 мм1.7 м/с5 %
    14:00Облачно с прояснениями+26°C42 %678 мм1.7 м/с5 %
    17:00Облачно с прояснениями+24°C49 %677 мм2.7 м/с5 %
    20:00Небольшая облачность+19°C57 %678 мм3.2 м/с5 %
    23:00Небольшая облачность+16°C64 %676 мм3.0 м/с5 %
  • 23июля
    Вторник
    +10°
    +27°
    Небольшая облачность
    ВремяПогодаТемператураВлажностьДавлениеВетер, м/сВероятность осадков
    02:00Небольшая облачность+14°C75 %675 мм2.7 м/с5 %
    05:00Практически безоблачно+13°C75 %675 мм1.6 м/с5 %
    08:00Ясно и безоблачно+21°C50 %679 мм1.1 м/с5 %
    11:00Ясно и безоблачно+25°C18 %680 мм1.7 м/с5 %
    14:00Небольшая облачность+26°C18 %678 мм4.9 м/с5 %
    17:00Практически безоблачно+24°C27 %678 мм4.5 м/с5 %
    20:00Ясно и безоблачно+20°C41 %678 мм5.1 м/с5 %
    23:00Ясно и безоблачно+16°C61 %676 мм3.5 м/с5 %
  • 24июля
    Среда
    +12°
    +27°
    Ясно и безоблачно
    ВремяПогодаТемператураВлажностьДавлениеВетер, м/сВероятность осадков
    02:00Ясно и безоблачно+12°C80 %675 мм1.5 м/с5 %
    05:00Ясно и безоблачно+11°C77 %674 мм1.6 м/с5 %
    08:00Ясно и безоблачно+20°C47 %678 мм1.5 м/с5 %
    11:00Ясно и безоблачно+24°C20 %678 мм0.3 м/с5 %
    14:00Ясно и безоблачно+27°C19 %676 мм1.8 м/с5 %
    17:00Ясно и безоблачно+24°C28 %676 мм1.7 м/с5 %
    20:00Ясно и безоблачно+19°C30 %675 мм2.0 м/с5 %
    23:00Ясно и безоблачно+16°C28 %674 мм1.2 м/с5 %
Мы используем cookies
Соглашаюсь